Time;durP1;ratioP1;P1;durP2;ratioP2;P2;SDS_P1;SDS_P2;PMS_P1;PMS_P2;Temp;Humidity;BMP_temperature;BMP_pressure;BME280_temperature;BME280_humidity;BME280_pressure;Samples;Min_cycle;Max_cycle;Signal;HPM_P1;HPM_P2
2023/09/23 00:01:32;;;;;;;0.60;0.50;;;;;;;-128.00;-1.00;-1.00;18992;318;7505039;-38
2023/09/23 00:03:58;;;;;;;0.90;0.60;;;;;;;-128.00;-1.00;-1.00;19040;318;7506896;-34
2023/09/23 00:06:24;;;;;;;1.10;0.70;;;;;;;-128.00;-1.00;-1.00;19028;323;7505258;-37
2023/09/23 00:08:50;;;;;;;1.80;0.90;;;;;;;-128.00;-1.00;-1.00;19009;318;7504837;-35
2023/09/23 00:11:16;;;;;;;1.10;0.90;;;;;;;-128.00;-1.00;-1.00;19040;318;7504764;-33
2023/09/23 00:13:42;;;;;;;2.40;0.70;;;;;;;-128.00;-1.00;-1.00;19037;322;7504841;-36
2023/09/23 00:16:11;;;;;;;0.40;0.40;;;;;;;-128.00;-1.00;-1.00;19026;318;7504720;-33
2023/09/23 00:18:38;;;;;;;0.70;0.60;;;;;;;-128.00;-1.00;-1.00;19035;318;7505563;-33
2023/09/23 00:21:05;;;;;;;0.50;0.30;;;;;;;-128.00;-1.00;-1.00;18991;322;7505275;-36
2023/09/23 00:23:33;;;;;;;0.50;0.40;;;;;;;-128.00;-1.00;-1.00;18995;318;7504538;-33
2023/09/23 00:26:00;;;;;;;0.70;0.20;;;;;;;-128.00;-1.00;-1.00;19030;318;7504758;-36
2023/09/23 00:28:30;;;;;;;1.30;1.00;;;;;;;-128.00;-1.00;-1.00;18996;323;7505400;-37
2023/09/23 00:31:05;;;;;;;0.80;0.50;;;;;;;-128.00;-1.00;-1.00;19028;318;7504711;-36
2023/09/23 00:33:32;;;;;;;1.00;0.50;;;;;;;-128.00;-1.00;-1.00;19021;318;7505126;-33
2023/09/23 00:35:58;;;;;;;1.40;0.60;;;;;;;-128.00;-1.00;-1.00;19047;318;7504814;-37
2023/09/23 01:18:44;;;;;;;5.80;1.50;;;;;;;-99.86;19.20;19728.14;20208;322;8077400;-34
2023/09/23 01:21:10;;;;;;;1.80;1.60;;;;;;;-128.00;-1.00;-1.00;18717;322;7505202;-37
2023/09/23 01:23:38;;;;;;;2.60;1.60;;;;;;;-128.00;-1.00;-1.00;19502;318;7504916;-36
2023/09/23 01:26:07;;;;;;;14.20;2.20;;;;;;;-128.00;-1.00;-1.00;19084;322;7505546;-36
2023/09/23 01:28:33;;;;;;;2.20;0.60;;;;;;;-128.00;-1.00;-1.00;19034;319;7504704;-36
2023/09/23 01:31:00;;;;;;;1.90;1.30;;;;;;;-128.00;-1.00;-1.00;19073;322;7504933;-36
2023/09/23 01:33:27;;;;;;;1.40;1.30;;;;;;;-128.00;-1.00;-1.00;19072;318;7504704;-35
2023/09/23 01:35:56;;;;;;;1.70;1.00;;;;;;;-128.00;-1.00;-1.00;19097;322;7505394;-33
2023/09/23 01:38:24;;;;;;;1.50;0.40;;;;;;;-128.00;-1.00;-1.00;19083;318;7505142;-36
2023/09/23 01:40:51;;;;;;;1.70;1.00;;;;;;;-128.00;-1.00;-1.00;19105;318;7506630;-36
2023/09/23 01:43:17;;;;;;;2.40;1.20;;;;;;;-128.00;-1.00;-1.00;19029;322;7505630;-33
2023/09/23 01:45:43;;;;;;;1.10;0.70;;;;;;;-128.00;-1.00;-1.00;19064;318;7504974;-34
2023/09/23 01:48:08;;;;;;;1.40;0.90;;;;;;;-128.00;-1.00;-1.00;19030;318;7504565;-33
2023/09/23 01:50:34;;;;;;;1.70;0.80;;;;;;;-128.00;-1.00;-1.00;19084;317;7505148;-36
2023/09/23 01:53:01;;;;;;;2.40;1.30;;;;;;;-128.00;-1.00;-1.00;19504;322;7505355;-34
2023/09/23 01:55:27;;;;;;;1.90;1.30;;;;;;;-128.00;-1.00;-1.00;19071;318;7506441;-36
2023/09/23 01:57:54;;;;;;;1.30;1.20;;;;;;;-128.00;-1.00;-1.00;19095;318;7504974;-33
2023/09/23 02:00:29;;;;;;;1.90;1.60;;;;;;;-128.00;-1.00;-1.00;19056;318;7507526;-36
2023/09/23 02:02:58;;;;;;;2.50;1.80;;;;;;;-128.00;-1.00;-1.00;19033;318;7505275;-35
2023/09/23 02:05:27;;;;;;;12.00;1.20;;;;;;;-128.00;-1.00;-1.00;19091;317;7506351;-34
2023/09/23 02:07:53;;;;;;;1.80;1.50;;;;;;;-128.00;-1.00;-1.00;19029;318;7504627;-36
2023/09/23 02:10:21;;;;;;;2.00;1.30;;;;;;;-128.00;-1.00;-1.00;19077;322;7505092;-35
2023/09/23 02:12:47;;;;;;;1.50;1.10;;;;;;;-128.00;-1.00;-1.00;19063;317;7504669;-36
2023/09/23 02:15:16;;;;;;;1.30;1.00;;;;;;;-128.00;-1.00;-1.00;19037;322;7506943;-33
2023/09/23 02:17:43;;;;;;;2.00;1.80;;;;;;;-128.00;-1.00;-1.00;19089;317;7505291;-34
2023/09/23 02:20:11;;;;;;;1.80;1.50;;;;;;;-128.00;-1.00;-1.00;19002;323;7505328;-35
2023/09/23 02:22:37;;;;;;;1.60;1.40;;;;;;;-128.00;-1.00;-1.00;19015;318;7504426;-33
2023/09/23 02:25:04;;;;;;;1.60;1.50;;;;;;;-128.00;-1.00;-1.00;19036;317;7504914;-33
2023/09/23 02:27:30;;;;;;;1.40;1.10;;;;;;;-128.00;-1.00;-1.00;19033;318;7504889;-36
2023/09/23 02:29:56;;;;;;;10.40;1.70;;;;;;;-128.00;-1.00;-1.00;19438;317;7505970;-36
2023/09/23 02:32:22;;;;;;;2.40;2.10;;;;;;;-128.00;-1.00;-1.00;19464;317;7505075;-33
2023/09/23 02:34:48;;;;;;;2.10;1.80;;;;;;;-128.00;-1.00;-1.00;19423;318;7506381;-34
2023/09/23 02:37:14;;;;;;;1.70;1.60;;;;;;;-128.00;-1.00;-1.00;19429;318;7506246;-35
2023/09/23 02:39:41;;;;;;;2.80;1.90;;;;;;;-128.00;-1.00;-1.00;19461;317;7504589;-36
2023/09/23 02:42:08;;;;;;;2.10;1.30;;;;;;;-128.00;-1.00;-1.00;19058;323;7505123;-36
2023/09/23 02:44:34;;;;;;;0.90;0.80;;;;;;;-128.00;-1.00;-1.00;19043;322;7504808;-35
2023/09/23 02:47:00;;;;;;;5.40;2.30;;;;;;;-128.00;-1.00;-1.00;19434;318;7506540;-33
2023/09/23 02:49:26;;;;;;;2.30;1.90;;;;;;;-128.00;-1.00;-1.00;19399;323;7504612;-32
2023/09/23 02:51:53;;;;;;;2.70;1.90;;;;;;;-128.00;-1.00;-1.00;19427;322;7504887;-33
2023/09/23 02:54:19;;;;;;;2.30;1.60;;;;;;;-128.00;-1.00;-1.00;19020;317;7504552;-33
2023/09/23 02:56:46;;;;;;;4.40;2.50;;;;;;;-128.00;-1.00;-1.00;19035;322;7505404;-35
2023/09/23 02:59:21;;;;;;;2.90;2.30;;;;;;;-128.00;-1.00;-1.00;18986;320;7504964;-33
2023/09/23 03:01:51;;;;;;;3.30;1.40;;;;;;;-128.00;-1.00;-1.00;19000;322;7504945;-35
2023/09/23 03:04:19;;;;;;;3.20;2.50;;;;;;;-128.00;-1.00;-1.00;19051;317;7504509;-35
2023/09/23 03:06:55;;;;;;;2.10;1.50;;;;;;;-128.00;-1.00;-1.00;19016;317;7506073;-35
2023/09/23 03:09:24;;;;;;;4.30;1.80;;;;;;;-128.00;-1.00;-1.00;19027;322;7504357;-34
2023/09/23 03:11:56;;;;;;;8.30;1.70;;;;;;;-128.00;-1.00;-1.00;19044;317;7505098;-36
2023/09/23 03:14:36;;;;;;;5.00;2.70;;;;;;;-128.00;-1.00;-1.00;19053;318;7505071;-36
2023/09/23 03:17:07;;;;;;;5.50;3.50;;;;;;;-128.00;-1.00;-1.00;19022;322;7504646;-34
2023/09/23 03:19:33;;;;;;;2.10;1.90;;;;;;;-128.00;-1.00;-1.00;19027;318;7504695;-36
2023/09/23 03:21:58;;;;;;;4.80;1.60;;;;;;;-128.00;-1.00;-1.00;18974;323;7504965;-33
2023/09/23 03:24:31;;;;;;;2.20;1.30;;;;;;;-128.00;-1.00;-1.00;19020;322;7504655;-33
2023/09/23 03:27:01;;;;;;;11.40;1.90;;;;;;;-128.00;-1.00;-1.00;19013;318;7504573;-33
2023/09/23 03:29:32;;;;;;;2.90;2.20;;;;;;;-128.00;-1.00;-1.00;18987;323;7505180;-33
2023/09/23 03:32:01;;;;;;;5.00;2.00;;;;;;;-128.00;-1.00;-1.00;19018;317;7507151;-36
2023/09/23 03:34:27;;;;;;;3.80;2.40;;;;;;;-128.00;-1.00;-1.00;19035;323;7504874;-33
2023/09/23 03:36:53;;;;;;;3.20;1.90;;;;;;;-128.00;-1.00;-1.00;19004;319;7505104;-34
2023/09/23 03:39:19;;;;;;;3.00;2.50;;;;;;;-128.00;-1.00;-1.00;18995;318;7505530;-33
2023/09/23 03:41:46;;;;;;;5.40;2.30;;;;;;;-128.00;-1.00;-1.00;19008;321;7505495;-33
2023/09/23 03:44:16;;;;;;;2.60;1.50;;;;;;;-128.00;-1.00;-1.00;19032;322;7504752;-32
2023/09/23 03:46:43;;;;;;;6.70;2.50;;;;;;;-128.00;-1.00;-1.00;19011;318;7504392;-35
2023/09/23 03:49:09;;;;;;;2.70;2.00;;;;;;;-128.00;-1.00;-1.00;19036;317;7504725;-33
2023/09/23 03:51:36;;;;;;;2.50;2.30;;;;;;;-128.00;-1.00;-1.00;19011;318;7504798;-33
2023/09/23 03:54:04;;;;;;;3.60;1.30;;;;;;;-128.00;-1.00;-1.00;19024;317;7505215;-35
2023/09/23 03:56:33;;;;;;;2.20;2.00;;;;;;;-128.00;-1.00;-1.00;19015;317;7504896;-33
2023/09/23 03:59:00;;;;;;;5.10;2.50;;;;;;;-128.00;-1.00;-1.00;18985;318;7504617;-33
2023/09/23 04:01:26;;;;;;;2.50;2.30;;;;;;;-128.00;-1.00;-1.00;19028;317;7505347;-34
2023/09/23 04:03:51;;;;;;;2.90;2.30;;;;;;;-128.00;-1.00;-1.00;19002;324;7504605;-35
2023/09/23 04:06:17;;;;;;;2.30;1.70;;;;;;;-128.00;-1.00;-1.00;19067;317;7504609;-34
2023/09/23 04:08:43;;;;;;;6.30;2.00;;;;;;;-128.00;-1.00;-1.00;18996;323;7506694;-33
2023/09/23 04:11:10;;;;;;;2.90;2.30;;;;;;;-128.00;-1.00;-1.00;19010;318;7504824;-33
2023/09/23 04:13:37;;;;;;;4.70;3.00;;;;;;;-128.00;-1.00;-1.00;19013;323;7504896;-35
2023/09/23 04:16:05;;;;;;;4.00;2.40;;;;;;;-128.00;-1.00;-1.00;19054;323;7504741;-33
2023/09/23 04:18:31;;;;;;;3.30;3.00;;;;;;;-128.00;-1.00;-1.00;19029;322;7506610;-35
2023/09/23 04:20:57;;;;;;;2.10;1.90;;;;;;;-128.00;-1.00;-1.00;18999;317;7507856;-35
2023/09/23 04:23:23;;;;;;;3.70;1.90;;;;;;;-128.00;-1.00;-1.00;19038;322;7504591;-35
2023/09/23 04:25:49;;;;;;;2.60;2.30;;;;;;;-128.00;-1.00;-1.00;19028;317;7504893;-35
2023/09/23 04:28:16;;;;;;;6.60;2.80;;;;;;;-128.00;-1.00;-1.00;19026;318;7505349;-35
2023/09/23 04:30:43;;;;;;;4.00;2.60;;;;;;;-128.00;-1.00;-1.00;19042;323;7506946;-35
2023/09/23 04:33:08;;;;;;;4.70;2.80;;;;;;;-128.00;-1.00;-1.00;19021;317;7506239;-34
2023/09/23 04:35:37;;;;;;;3.90;1.90;;;;;;;-128.00;-1.00;-1.00;19020;321;7504748;-33
2023/09/23 04:38:03;;;;;;;7.90;2.90;;;;;;;-128.00;-1.00;-1.00;19021;322;7505196;-33
2023/09/23 04:40:29;;;;;;;4.70;3.90;;;;;;;-128.00;-1.00;-1.00;19021;318;7504968;-32
2023/09/23 04:42:55;;;;;;;5.20;3.40;;;;;;;-128.00;-1.00;-1.00;19013;322;7506316;-33
2023/09/23 04:45:21;;;;;;;6.20;3.80;;;;;;;-128.00;-1.00;-1.00;19449;317;7504747;-33
2023/09/23 04:47:50;;;;;;;8.90;5.00;;;;;;;-128.00;-1.00;-1.00;19472;323;7505030;-36
2023/09/23 04:50:23;;;;;;;7.80;4.50;;;;;;;-128.00;-1.00;-1.00;18990;318;7504710;-34
2023/09/23 04:52:50;;;;;;;4.90;3.60;;;;;;;-128.00;-1.00;-1.00;19009;322;7505031;-34
2023/09/23 04:55:16;;;;;;;5.10;3.60;;;;;;;-128.00;-1.00;-1.00;19045;318;7505898;-33
2023/09/23 04:57:42;;;;;;;6.80;4.00;;;;;;;-128.00;-1.00;-1.00;19029;317;7505230;-33
2023/09/23 05:00:14;;;;;;;4.00;2.40;;;;;;;-128.00;-1.00;-1.00;19005;318;7504709;-34
2023/09/23 05:02:41;;;;;;;8.20;4.40;;;;;;;-128.00;-1.00;-1.00;19019;322;7504613;-35
2023/09/23 05:05:09;;;;;;;7.50;3.70;;;;;;;-128.00;-1.00;-1.00;19029;318;7504531;-36
2023/09/23 05:07:37;;;;;;;7.10;3.80;;;;;;;-128.00;-1.00;-1.00;19013;323;7507093;-32
2023/09/23 05:10:05;;;;;;;9.40;4.90;;;;;;;-128.00;-1.00;-1.00;19024;322;7506460;-36
2023/09/23 05:12:30;;;;;;;5.60;3.60;;;;;;;-128.00;-1.00;-1.00;19046;318;7504725;-36
2023/09/23 05:14:57;;;;;;;8.20;4.10;;;;;;;-128.00;-1.00;-1.00;19014;317;7506636;-35
2023/09/23 05:17:26;;;;;;;5.70;3.80;;;;;;;-128.00;-1.00;-1.00;19000;318;7504505;-34
2023/09/23 05:19:52;;;;;;;5.00;3.30;;;;;;;-128.00;-1.00;-1.00;19023;317;7505719;-35
2023/09/23 05:22:18;;;;;;;3.80;2.80;;;;;;;-128.00;-1.00;-1.00;19030;317;7506195;-32
2023/09/23 05:24:48;;;;;;;5.80;4.30;;;;;;;-128.00;-1.00;-1.00;19036;318;7505486;-35
2023/09/23 05:27:14;;;;;;;6.30;4.30;;;;;;;-128.00;-1.00;-1.00;19022;317;7506419;-37
2023/09/23 05:29:42;;;;;;;10.00;3.90;;;;;;;-128.00;-1.00;-1.00;19046;317;7506079;-34
2023/09/23 05:32:10;;;;;;;9.70;4.20;;;;;;;-128.00;-1.00;-1.00;19020;319;7505089;-36
2023/09/23 05:34:39;;;;;;;10.50;5.30;;;;;;;-128.00;-1.00;-1.00;19025;323;7505524;-36
2023/09/23 05:37:06;;;;;;;11.30;5.30;;;;;;;-128.00;-1.00;-1.00;19039;317;7505065;-36
2023/09/23 05:39:34;;;;;;;8.30;4.00;;;;;;;-128.00;-1.00;-1.00;19029;317;7505016;-36
2023/09/23 05:42:02;;;;;;;8.40;4.70;;;;;;;-128.00;-1.00;-1.00;19008;323;7505233;-33
2023/09/23 05:44:28;;;;;;;4.50;3.50;;;;;;;-128.00;-1.00;-1.00;19073;323;7506348;-35
2023/09/23 05:46:53;;;;;;;9.70;4.90;;;;;;;-128.00;-1.00;-1.00;19037;323;7506576;-33
2023/09/23 05:49:19;;;;;;;10.30;6.50;;;;;;;-128.00;-1.00;-1.00;19438;318;7505063;-35
2023/09/23 05:51:47;;;;;;;7.70;4.60;;;;;;;-128.00;-1.00;-1.00;19438;322;7504798;-35
2023/09/23 05:54:12;;;;;;;3.70;2.30;;;;;;;-128.00;-1.00;-1.00;19025;322;7506310;-37
2023/09/23 05:56:38;;;;;;;7.50;4.60;;;;;;;-128.00;-1.00;-1.00;18995;318;7505071;-34
2023/09/23 05:59:07;;;;;;;9.90;6.30;;;;;;;-128.00;-1.00;-1.00;19465;318;7504813;-34
2023/09/23 06:01:34;;;;;;;10.20;5.50;;;;;;;-128.00;-1.00;-1.00;18998;318;7504926;-34
2023/09/23 06:04:02;;;;;;;7.10;5.60;;;;;;;-128.00;-1.00;-1.00;19045;322;7504776;-34
2023/09/23 06:06:28;;;;;;;7.60;5.70;;;;;;;-128.00;-1.00;-1.00;19052;323;7506598;-36
2023/09/23 06:08:56;;;;;;;8.60;5.40;;;;;;;-128.00;-1.00;-1.00;19409;323;7505869;-36
2023/09/23 06:11:22;;;;;;;5.90;4.20;;;;;;;-128.00;-1.00;-1.00;19021;318;7505070;-34
2023/09/23 06:13:48;;;;;;;6.80;4.50;;;;;;;-128.00;-1.00;-1.00;19427;318;7505582;-36
2023/09/23 06:16:16;;;;;;;7.60;5.30;;;;;;;-128.00;-1.00;-1.00;19027;317;7506363;-36
2023/09/23 06:18:42;;;;;;;4.40;3.60;;;;;;;-128.00;-1.00;-1.00;19037;318;7504285;-34
2023/09/23 06:21:08;;;;;;;5.10;3.90;;;;;;;-128.00;-1.00;-1.00;18998;318;7505373;-35
2023/09/23 06:23:34;;;;;;;7.40;5.10;;;;;;;-128.00;-1.00;-1.00;19017;318;7504546;-35
2023/09/23 06:26:05;;;;;;;7.00;5.40;;;;;;;-128.00;-1.00;-1.00;19471;323;7505024;-35
2023/09/23 06:28:32;;;;;;;1.70;1.20;;;;;;;-128.00;-1.00;-1.00;19023;317;7504897;-33
2023/09/23 06:30:58;;;;;;;6.80;4.70;;;;;;;-128.00;-1.00;-1.00;19010;322;7504556;-33
2023/09/23 06:33:23;;;;;;;3.40;3.10;;;;;;;-128.00;-1.00;-1.00;19031;322;7505327;-33
2023/09/23 06:35:49;;;;;;;4.90;4.40;;;;;;;-128.00;-1.00;-1.00;19001;319;7504779;-36
2023/09/23 06:38:15;;;;;;;5.20;4.10;;;;;;;-128.00;-1.00;-1.00;19042;317;7506432;-34
2023/09/23 06:40:41;;;;;;;6.60;4.80;;;;;;;-128.00;-1.00;-1.00;19037;317;7504462;-34
2023/09/23 06:43:07;;;;;;;4.50;3.90;;;;;;;-128.00;-1.00;-1.00;18987;318;7505187;-33
2023/09/23 06:45:33;;;;;;;3.80;2.60;;;;;;;-128.00;-1.00;-1.00;19014;323;7505814;-35
2023/09/23 06:47:59;;;;;;;3.80;3.20;;;;;;;-128.00;-1.00;-1.00;19442;318;7506175;-35
2023/09/23 06:50:25;;;;;;;5.80;4.10;;;;;;;-128.00;-1.00;-1.00;19457;322;7505409;-36
2023/09/23 06:52:52;;;;;;;5.20;3.80;;;;;;;-128.00;-1.00;-1.00;19473;317;7504419;-33
2023/09/23 06:55:19;;;;;;;3.70;2.90;;;;;;;-128.00;-1.00;-1.00;19457;318;7504992;-33
2023/09/23 06:57:44;;;;;;;4.20;3.30;;;;;;;-128.00;-1.00;-1.00;19004;317;7506313;-33
2023/09/23 07:00:11;;;;;;;2.20;1.50;;;;;;;-128.00;-1.00;-1.00;19021;318;7505435;-33
2023/09/23 07:02:37;;;;;;;2.90;2.60;;;;;;;-128.00;-1.00;-1.00;19012;318;7507625;-33
2023/09/23 07:05:03;;;;;;;3.40;2.80;;;;;;;-128.00;-1.00;-1.00;19424;318;7505270;-34
2023/09/23 07:07:29;;;;;;;3.10;2.80;;;;;;;-128.00;-1.00;-1.00;19459;318;7504889;-36
2023/09/23 07:09:56;;;;;;;4.00;3.00;;;;;;;-128.00;-1.00;-1.00;19433;317;7504726;-36
2023/09/23 07:12:22;;;;;;;3.40;2.90;;;;;;;-128.00;-1.00;-1.00;19432;317;7505333;-36
2023/09/23 07:14:49;;;;;;;3.60;3.00;;;;;;;-128.00;-1.00;-1.00;19448;317;7505311;-36
2023/09/23 07:17:15;;;;;;;2.70;2.50;;;;;;;-128.00;-1.00;-1.00;19027;323;7505711;-37
2023/09/23 07:19:40;;;;;;;2.90;2.40;;;;;;;-128.00;-1.00;-1.00;19001;322;7506694;-33
2023/09/23 07:22:06;;;;;;;2.60;1.70;;;;;;;-128.00;-1.00;-1.00;19028;318;7505394;-33
2023/09/23 07:24:35;;;;;;;2.60;1.80;;;;;;;-128.00;-1.00;-1.00;19032;322;7505124;-37
2023/09/23 07:27:01;;;;;;;1.60;1.20;;;;;;;-128.00;-1.00;-1.00;19006;323;7505506;-37
2023/09/23 07:29:26;;;;;;;1.80;1.70;;;;;;;-128.00;-1.00;-1.00;19005;322;7504797;-37
2023/09/23 07:31:53;;;;;;;4.20;1.80;;;;;;;-128.00;-1.00;-1.00;19431;317;7504484;-34
2023/09/23 07:34:19;;;;;;;2.80;2.20;;;;;;;-128.00;-1.00;-1.00;19038;318;7505872;-37
2023/09/23 07:36:45;;;;;;;2.00;1.40;;;;;;;-128.00;-1.00;-1.00;19051;317;7504648;-33
2023/09/23 07:39:11;;;;;;;1.50;1.40;;;;;;;-128.00;-1.00;-1.00;19026;322;7505767;-33
2023/09/23 07:41:37;;;;;;;2.70;2.30;;;;;;;-128.00;-1.00;-1.00;19448;317;7506625;-36
2023/09/23 07:44:03;;;;;;;1.70;1.40;;;;;;;-128.00;-1.00;-1.00;19433;318;7505182;-35
2023/09/23 07:46:29;;;;;;;1.60;1.30;;;;;;;-128.00;-1.00;-1.00;19029;322;7505075;-33
2023/09/23 07:48:55;;;;;;;2.20;2.00;;;;;;;-128.00;-1.00;-1.00;19052;317;7504850;-36
2023/09/23 07:51:21;;;;;;;1.70;1.40;;;;;;;-128.00;-1.00;-1.00;19017;318;7504339;-36
2023/09/23 07:53:48;;;;;;;2.60;2.20;;;;;;;-128.00;-1.00;-1.00;19440;318;7506560;-36
2023/09/23 07:56:14;;;;;;;2.90;2.20;;;;;;;-128.00;-1.00;-1.00;19469;318;7504836;-36
2023/09/23 07:58:40;;;;;;;1.70;1.50;;;;;;;-128.00;-1.00;-1.00;19434;323;7504474;-32
2023/09/23 08:01:06;;;;;;;2.80;2.60;;;;;;;-128.00;-1.00;-1.00;19440;317;7504495;-33
2023/09/23 08:03:33;;;;;;;2.20;2.00;;;;;;;-128.00;-1.00;-1.00;19421;318;7504536;-32
2023/09/23 08:05:59;;;;;;;2.50;2.20;;;;;;;-128.00;-1.00;-1.00;19421;318;7504823;-32
2023/09/23 08:08:26;;;;;;;1.50;1.30;;;;;;;-128.00;-1.00;-1.00;19442;318;7504691;-33
2023/09/23 08:10:53;;;;;;;0.90;0.80;;;;;;;-128.00;-1.00;-1.00;19021;318;7504890;-33
2023/09/23 08:13:20;;;;;;;2.30;1.70;;;;;;;-128.00;-1.00;-1.00;19029;317;7504968;-33
2023/09/23 08:15:46;;;;;;;2.30;2.10;;;;;;;-128.00;-1.00;-1.00;19027;318;7504817;-35
2023/09/23 08:18:12;;;;;;;0.50;0.50;;;;;;;-128.00;-1.00;-1.00;19065;323;7504865;-36
2023/09/23 08:20:39;;;;;;;1.10;0.60;;;;;;;-128.00;-1.00;-1.00;19038;317;7506418;-36
2023/09/23 08:23:05;;;;;;;1.10;0.80;;;;;;;-128.00;-1.00;-1.00;19035;321;7505467;-36
2023/09/23 08:25:32;;;;;;;2.90;1.00;;;;;;;-128.00;-1.00;-1.00;19026;318;7505225;-35
2023/09/23 08:27:58;;;;;;;1.10;0.90;;;;;;;-128.00;-1.00;-1.00;18993;322;7506313;-33
2023/09/23 08:30:25;;;;;;;0.50;0.40;;;;;;;-128.00;-1.00;-1.00;18996;318;7505083;-35
2023/09/23 08:32:50;;;;;;;1.20;0.60;;;;;;;-128.00;-1.00;-1.00;19025;317;7504739;-35
2023/09/23 08:35:16;;;;;;;0.40;0.40;;;;;;;-128.00;-1.00;-1.00;19006;318;7506352;-31
2023/09/23 08:37:45;;;;;;;0.80;0.50;;;;;;;-128.00;-1.00;-1.00;19037;318;7506313;-32
2023/09/23 08:40:12;;;;;;;4.40;0.80;;;;;;;-128.00;-1.00;-1.00;18987;322;7506246;-36
2023/09/23 08:42:41;;;;;;;1.20;0.90;;;;;;;-128.00;-1.00;-1.00;19013;323;7506252;-36
2023/09/23 08:45:08;;;;;;;3.50;0.70;;;;;;;-128.00;-1.00;-1.00;18995;318;7505289;-33
2023/09/23 08:47:37;;;;;;;3.90;1.50;;;;;;;-128.00;-1.00;-1.00;19057;322;7505279;-36
2023/09/23 08:50:08;;;;;;;2.60;0.70;;;;;;;-128.00;-1.00;-1.00;19017;320;7504589;-33
2023/09/23 08:52:34;;;;;;;1.10;1.00;;;;;;;-128.00;-1.00;-1.00;19022;322;7504785;-33
2023/09/23 08:55:01;;;;;;;13.70;1.30;;;;;;;-128.00;-1.00;-1.00;19042;317;7506577;-36
2023/09/23 08:57:28;;;;;;;1.30;0.70;;;;;;;-128.00;-1.00;-1.00;19001;317;7504901;-34
2023/09/23 08:59:54;;;;;;;4.30;1.00;;;;;;;-128.00;-1.00;-1.00;19025;318;7504966;-34
2023/09/23 09:02:22;;;;;;;1.70;0.80;;;;;;;-128.00;-1.00;-1.00;19486;323;7505641;-36
2023/09/23 09:04:48;;;;;;;1.00;0.80;;;;;;;-128.00;-1.00;-1.00;19019;318;7505226;-32
2023/09/23 09:07:14;;;;;;;1.70;0.80;;;;;;;-128.00;-1.00;-1.00;19021;317;7505850;-37
2023/09/23 09:09:40;;;;;;;2.10;0.90;;;;;;;-128.00;-1.00;-1.00;19022;323;7505326;-37
2023/09/23 09:12:05;;;;;;;1.80;1.10;;;;;;;-128.00;-1.00;-1.00;18992;319;7505060;-35
2023/09/23 09:14:35;;;;;;;1.80;0.60;;;;;;;-128.00;-1.00;-1.00;19426;320;7504839;-35
2023/09/23 09:17:00;;;;;;;2.70;1.00;;;;;;;-128.00;-1.00;-1.00;19064;317;7506080;-32
2023/09/23 09:19:26;;;;;;;1.80;0.80;;;;;;;-128.00;-1.00;-1.00;19440;318;7504340;-33
2023/09/23 09:21:54;;;;;;;0.80;0.30;;;;;;;-128.00;-1.00;-1.00;18910;324;7504743;-32
2023/09/23 09:24:19;;;;;;;1.20;0.50;;;;;;;-128.00;-1.00;-1.00;19025;318;7506176;-38
2023/09/23 09:26:45;;;;;;;0.80;0.60;;;;;;;-128.00;-1.00;-1.00;19054;323;7506294;-38
2023/09/23 09:29:12;;;;;;;1.60;0.70;;;;;;;-128.00;-1.00;-1.00;19427;318;7505185;-38
2023/09/23 09:31:41;;;;;;;1.10;0.70;;;;;;;-128.00;-1.00;-1.00;19021;323;7504814;-33
2023/09/23 09:34:11;;;;;;;2.60;1.30;;;;;;;-128.00;-1.00;-1.00;19017;322;7504870;-32
2023/09/23 09:36:38;;;;;;;0.50;0.40;;;;;;;-128.00;-1.00;-1.00;19045;319;7505498;-32
2023/09/23 09:39:08;;;;;;;1.70;0.80;;;;;;;-128.00;-1.00;-1.00;19039;317;7506597;-32
2023/09/23 09:41:47;;;;;;;1.50;0.40;;;;;;;-128.00;-1.00;-1.00;19043;323;7504207;-33
2023/09/23 09:44:15;;;;;;;2.00;0.90;;;;;;;-128.00;-1.00;-1.00;19041;317;7507110;-36
2023/09/23 09:46:41;;;;;;;0.50;0.40;;;;;;;-128.00;-1.00;-1.00;19006;322;7506272;-33
2023/09/23 09:49:08;;;;;;;1.00;0.40;;;;;;;-128.00;-1.00;-1.00;19001;318;7504752;-37
2023/09/23 09:51:35;;;;;;;2.00;1.10;;;;;;;-128.00;-1.00;-1.00;18997;318;7505412;-33
2023/09/23 09:54:02;;;;;;;2.00;0.60;;;;;;;-128.00;-1.00;-1.00;19023;317;7506066;-37
2023/09/23 09:56:27;;;;;;;1.70;0.80;;;;;;;-128.00;-1.00;-1.00;19019;322;7504834;-32
2023/09/23 09:58:55;;;;;;;3.00;1.30;;;;;;;-128.00;-1.00;-1.00;19442;323;7504971;-32
2023/09/23 10:01:22;;;;;;;3.70;0.90;;;;;;;-128.00;-1.00;-1.00;18989;323;7504377;-32
2023/09/23 10:03:50;;;;;;;0.80;0.40;;;;;;;-128.00;-1.00;-1.00;19026;317;7505098;-31
2023/09/23 10:06:19;;;;;;;1.50;0.70;;;;;;;-128.00;-1.00;-1.00;19017;317;7504934;-36
2023/09/23 10:08:48;;;;;;;0.80;0.50;;;;;;;-128.00;-1.00;-1.00;19071;317;7505198;-32
2023/09/23 10:11:14;;;;;;;3.30;0.80;;;;;;;-128.00;-1.00;-1.00;18999;320;7506317;-32
2023/09/23 10:13:42;;;;;;;1.00;0.70;;;;;;;-128.00;-1.00;-1.00;19041;318;7504848;-32
2023/09/23 10:16:12;;;;;;;0.70;0.40;;;;;;;-128.00;-1.00;-1.00;19036;317;7505032;-31
2023/09/23 10:18:39;;;;;;;1.20;0.50;;;;;;;-128.00;-1.00;-1.00;19025;322;7506171;-36
2023/09/23 10:21:05;;;;;;;1.40;0.70;;;;;;;-128.00;-1.00;-1.00;18997;322;7504557;-32
2023/09/23 10:23:36;;;;;;;3.80;0.90;;;;;;;-128.00;-1.00;-1.00;19024;317;7505208;-32
2023/09/23 10:26:18;;;;;;;1.00;0.50;;;;;;;-128.00;-1.00;-1.00;19031;318;7504611;-35
2023/09/23 10:28:57;;;;;;;0.90;0.40;;;;;;;-128.00;-1.00;-1.00;19011;318;7505277;-31
2023/09/23 10:31:27;;;;;;;1.30;0.70;;;;;;;-128.00;-1.00;-1.00;19000;320;7505031;-32
2023/09/23 10:33:53;;;;;;;2.20;0.80;;;;;;;-128.00;-1.00;-1.00;19033;322;7506486;-31
2023/09/23 10:36:20;;;;;;;0.50;0.40;;;;;;;-128.00;-1.00;-1.00;18984;318;7506575;-36
2023/09/23 10:38:46;;;;;;;1.60;0.70;;;;;;;-128.00;-1.00;-1.00;19027;318;7506249;-35
2023/09/23 10:41:12;;;;;;;5.70;0.70;;;;;;;-128.00;-1.00;-1.00;19445;318;7504411;-36
2023/09/23 10:43:38;;;;;;;2.20;1.10;;;;;;;-128.00;-1.00;-1.00;19435;317;7505779;-35
2023/09/23 10:46:05;;;;;;;14.80;5.00;;;;;;;-128.00;-1.00;-1.00;19438;317;7504646;-35
2023/09/23 10:48:31;;;;;;;2.00;1.30;;;;;;;-128.00;-1.00;-1.00;18991;318;7505597;-34
2023/09/23 10:50:58;;;;;;;1.50;1.00;;;;;;;-128.00;-1.00;-1.00;19052;317;7506123;-35
2023/09/23 10:53:29;;;;;;;2.20;0.90;;;;;;;-128.00;-1.00;-1.00;19014;317;7504521;-33
2023/09/23 10:55:56;;;;;;;3.00;0.90;;;;;;;-128.00;-1.00;-1.00;19055;323;7506019;-31
2023/09/23 10:58:21;;;;;;;1.00;0.90;;;;;;;-128.00;-1.00;-1.00;18995;318;7505145;-31
2023/09/23 11:00:48;;;;;;;1.20;1.00;;;;;;;-128.00;-1.00;-1.00;19425;317;7505191;-32
2023/09/23 11:03:17;;;;;;;4.40;1.50;;;;;;;-128.00;-1.00;-1.00;19394;317;7505171;-35
2023/09/23 11:05:43;;;;;;;2.40;0.70;;;;;;;-128.00;-1.00;-1.00;19020;322;7505709;-36
2023/09/23 11:08:13;;;;;;;1.50;1.00;;;;;;;-128.00;-1.00;-1.00;19034;318;7504851;-31
2023/09/23 11:10:39;;;;;;;1.50;1.10;;;;;;;-128.00;-1.00;-1.00;19029;322;7504504;-31
2023/09/23 11:13:06;;;;;;;3.60;1.00;;;;;;;-128.00;-1.00;-1.00;19032;323;7505049;-31
2023/09/23 11:15:32;;;;;;;1.50;1.00;;;;;;;-128.00;-1.00;-1.00;19039;323;7504970;-35
2023/09/23 11:17:58;;;;;;;0.90;0.80;;;;;;;-128.00;-1.00;-1.00;19010;318;7504530;-36
2023/09/23 11:20:28;;;;;;;7.80;1.20;;;;;;;-128.00;-1.00;-1.00;19002;323;7505076;-32
2023/09/23 11:23:03;;;;;;;2.60;1.90;;;;;;;-128.00;-1.00;-1.00;19034;317;7506377;-36
2023/09/23 11:25:30;;;;;;;3.30;1.00;;;;;;;-128.00;-1.00;-1.00;19013;322;7505451;-36
2023/09/23 11:27:59;;;;;;;1.60;1.20;;;;;;;-128.00;-1.00;-1.00;19042;322;7504834;-33
2023/09/23 11:30:25;;;;;;;1.40;0.80;;;;;;;-128.00;-1.00;-1.00;19019;323;7504676;-36
2023/09/23 11:32:51;;;;;;;2.20;1.30;;;;;;;-128.00;-1.00;-1.00;19022;322;7505089;-36
2023/09/23 11:35:17;;;;;;;2.90;2.00;;;;;;;-128.00;-1.00;-1.00;19048;317;7504570;-35
2023/09/23 11:37:44;;;;;;;2.10;1.30;;;;;;;-128.00;-1.00;-1.00;19006;318;7504518;-38
2023/09/23 11:40:18;;;;;;;1.60;1.00;;;;;;;-128.00;-1.00;-1.00;19017;321;7506284;-35
2023/09/23 11:42:44;;;;;;;1.30;1.20;;;;;;;-128.00;-1.00;-1.00;19030;318;7505989;-36
2023/09/23 11:45:10;;;;;;;2.70;1.40;;;;;;;-128.00;-1.00;-1.00;19021;318;7504857;-32
2023/09/23 11:47:36;;;;;;;1.90;1.00;;;;;;;-128.00;-1.00;-1.00;19005;318;7504530;-36
2023/09/23 11:50:05;;;;;;;1.40;1.00;;;;;;;-128.00;-1.00;-1.00;19002;317;7505730;-37
2023/09/23 11:52:32;;;;;;;1.50;1.40;;;;;;;-128.00;-1.00;-1.00;19015;318;7505026;-32
2023/09/23 11:54:58;;;;;;;6.70;0.70;;;;;;;-128.00;-1.00;-1.00;19011;321;7504851;-36
2023/09/23 11:57:25;;;;;;;1.40;1.00;;;;;;;-128.00;-1.00;-1.00;19022;323;7504718;-35
2023/09/23 11:59:51;;;;;;;6.00;1.20;;;;;;;-128.00;-1.00;-1.00;18998;323;7506739;-31
2023/09/23 12:02:19;;;;;;;3.80;1.10;;;;;;;-128.00;-1.00;-1.00;19023;322;7505609;-35
2023/09/23 12:04:46;;;;;;;3.60;1.50;;;;;;;-128.00;-1.00;-1.00;19043;317;7505208;-32
2023/09/23 12:07:14;;;;;;;1.70;1.40;;;;;;;-128.00;-1.00;-1.00;19010;320;7504852;-32
2023/09/23 12:09:40;;;;;;;3.60;2.10;;;;;;;-128.00;-1.00;-1.00;19028;317;7505904;-35
2023/09/23 12:12:06;;;;;;;1.10;0.80;;;;;;;-128.00;-1.00;-1.00;19006;324;7505741;-31
2023/09/23 12:14:32;;;;;;;3.40;0.70;;;;;;;-128.00;-1.00;-1.00;19046;317;7505299;-30